Time;durP1;ratioP1;P1;durP2;ratioP2;P2;SDS_P1;SDS_P2;PMS_P1;PMS_P2;Temp;Humidity;BMP_temperature;BMP_pressure;BME280_temperature;BME280_humidity;BME280_pressure;Samples;Min_cycle;Max_cycle;Signal;HPM_P1;HPM_P2
2022/10/16 00:01:57;;;;;;;;;;;;;;;25.84;31.00;101472.03;5056863;28;1080;-34
2022/10/16 00:04:22;;;;;;;;;;;;;;;25.87;31.38;101473.59;5069939;28;897;-34
2022/10/16 00:06:47;;;;;;;;;;;;;;;25.89;31.32;101477.81;5076372;28;1092;-34
2022/10/16 00:09:13;;;;;;;;;;;;;;;25.87;31.63;101474.44;5057275;28;1112;-35
2022/10/16 00:11:39;;;;;;;;;;;;;;;25.88;31.71;101477.97;5067810;28;2575;-35
2022/10/16 00:14:05;;;;;;;;;;;;;;;25.87;31.54;101477.13;5056511;28;1182;-35
2022/10/16 00:16:30;;;;;;;;;;;;;;;25.86;32.21;101480.81;5070517;28;901;-35
2022/10/16 00:18:56;;;;;;;;;;;;;;;25.88;32.08;101483.34;5058760;28;1910;-35
2022/10/16 00:21:22;;;;;;;;;;;;;;;25.87;32.56;101482.53;5056868;28;1112;-34
2022/10/16 00:23:50;;;;;;;;;;;;;;;25.82;32.37;101476.75;5056714;28;1112;-35
2022/10/16 00:26:15;;;;;;;;;;;;;;;25.82;32.50;101484.84;5056522;28;1113;-35
2022/10/16 00:28:41;;;;;;;;;;;;;;;25.85;32.36;101479.13;5070188;28;942;-33
2022/10/16 00:31:07;;;;;;;;;;;;;;;25.88;32.23;101476.13;5070902;28;1266;-36
2022/10/16 00:33:32;;;;;;;;;;;;;;;25.82;32.51;101479.44;5068101;28;1205;-35
2022/10/16 00:35:58;;;;;;;;;;;;;;;25.82;32.34;101475.91;5076728;28;1064;-35
2022/10/16 00:38:23;;;;;;;;;;;;;;;25.83;32.44;101470.34;5066357;28;1910;-35
2022/10/16 00:40:49;;;;;;;;;;;;;;;25.84;32.61;101468.50;5056102;28;1108;-35
2022/10/16 00:43:32;;;;;;;;;;;;;;;25.76;32.56;101472.81;5071912;28;1856;-35
2022/10/16 00:45:57;;;;;;;;;;;;;;;25.78;32.77;101470.84;5063899;28;1131;-35
2022/10/16 00:48:22;;;;;;;;;;;;;;;25.82;32.98;101465.13;5055772;28;1120;-35
2022/10/16 00:50:47;;;;;;;;;;;;;;;25.84;32.97;101473.91;5038162;28;1200;-35
2022/10/16 00:53:13;;;;;;;;;;;;;;;25.80;32.95;101468.84;5070034;28;989;-35
2022/10/16 00:55:38;;;;;;;;;;;;;;;25.83;33.11;101472.19;5063684;28;1132;-35
2022/10/16 00:58:03;;;;;;;;;;;;;;;25.82;33.28;101459.72;5062300;28;1084;-35
2022/10/16 01:00:29;;;;;;;;;;;;;;;25.84;33.50;101469.34;5061565;28;1906;-33
2022/10/16 01:02:58;;;;;;;;;;;;;;;25.79;33.70;101466.28;5064726;28;1143;-34
2022/10/16 01:05:25;;;;;;;;;;;;;;;25.84;33.30;101473.91;5073246;28;1144;-35
2022/10/16 01:07:58;;;;;;;;;;;;;;;25.76;33.43;101477.38;5048130;28;1203;-35
2022/10/16 01:10:27;;;;;;;;;;;;;;;25.73;33.09;101483.06;5037958;28;1144;-35
2022/10/16 01:13:06;;;;;;;;;;;;;;;25.76;33.04;101478.22;5065237;28;2661;-35
2022/10/16 01:15:40;;;;;;;;;;;;;;;25.75;32.60;101483.75;5040297;28;1211;-35
2022/10/16 01:18:11;;;;;;;;;;;;;;;25.74;32.99;101493.69;5066367;28;1413;-34
2022/10/16 01:20:57;;;;;;;;;;;;;;;25.74;33.25;101500.94;5040264;28;1147;-35
2022/10/16 01:23:41;;;;;;;;;;;;;;;25.75;33.00;101500.78;5044818;28;1231;-35
2022/10/16 01:26:24;;;;;;;;;;;;;;;25.74;32.94;101491.00;5062466;28;1065;-34
2022/10/16 01:29:01;;;;;;;;;;;;;;;25.76;32.99;101505.16;5071789;28;1143;-34
2022/10/16 01:31:27;;;;;;;;;;;;;;;25.80;32.98;101498.47;5067225;28;1151;-34
2022/10/16 01:34:19;;;;;;;;;;;;;;;25.84;32.89;101507.06;5038139;28;1168;-35
2022/10/16 01:36:50;;;;;;;;;;;;;;;25.86;32.98;101512.34;5052224;28;1150;-34
2022/10/16 01:39:15;;;;;;;;;;;;;;;25.86;33.50;101507.78;5037837;28;1969;-34
2022/10/16 01:41:42;;;;;;;;;;;;;;;25.87;33.28;101508.63;5052741;28;1793;-35
2022/10/16 01:44:14;;;;;;;;;;;;;;;25.83;33.67;101518.00;5055710;28;1104;-35
2022/10/16 01:46:39;;;;;;;;;;;;;;;25.85;33.83;101500.69;5037910;28;1156;-34
2022/10/16 01:49:05;;;;;;;;;;;;;;;25.85;33.44;101505.22;5055409;28;1120;-34
2022/10/16 01:51:30;;;;;;;;;;;;;;;25.87;33.37;101508.63;5053482;28;1179;-34
2022/10/16 01:53:57;;;;;;;;;;;;;;;25.91;33.17;101505.47;5055935;28;1024;-35
2022/10/16 01:56:22;;;;;;;;;;;;;;;25.91;33.25;101507.28;5038142;28;1176;-35
2022/10/16 01:59:03;;;;;;;;;;;;;;;25.91;33.14;101502.75;5057697;28;1971;-35
2022/10/16 02:01:29;;;;;;;;;;;;;;;25.86;33.45;101506.94;5059115;28;1128;-34
2022/10/16 02:03:56;;;;;;;;;;;;;;;25.93;33.19;101497.22;5063366;28;1167;-35
2022/10/16 02:06:22;;;;;;;;;;;;;;;25.92;33.20;101498.22;5041855;28;1210;-35
2022/10/16 02:08:47;;;;;;;;;;;;;;;25.91;33.13;101496.50;5045220;28;1164;-35
2022/10/16 02:11:13;;;;;;;;;;;;;;;25.89;33.42;101496.66;5069382;28;1369;-35
2022/10/16 02:13:44;;;;;;;;;;;;;;;25.92;33.31;101496.34;5075844;28;2662;-35
2022/10/16 02:16:10;;;;;;;;;;;;;;;25.94;33.28;101506.16;5047526;28;1202;-35
2022/10/16 02:18:35;;;;;;;;;;;;;;;25.97;33.36;101504.00;5059010;28;1903;-35
2022/10/16 02:21:21;;;;;;;;;;;;;;;25.97;33.61;101503.16;5041283;28;1125;-35
2022/10/16 02:23:46;;;;;;;;;;;;;;;25.99;33.80;101498.44;5072351;28;1323;-35
2022/10/16 02:26:12;;;;;;;;;;;;;;;25.96;33.99;101509.56;5059139;28;1186;-35
2022/10/16 02:28:42;;;;;;;;;;;;;;;25.99;34.13;101501.97;5041268;28;1141;-35
2022/10/16 02:31:08;;;;;;;;;;;;;;;26.00;34.22;101505.53;5059117;28;1140;-35
2022/10/16 02:33:33;;;;;;;;;;;;;;;26.01;34.16;101510.75;5053374;28;1120;-37
2022/10/16 02:35:59;;;;;;;;;;;;;;;26.03;34.34;101503.38;5042934;28;1155;-34
2022/10/16 02:38:24;;;;;;;;;;;;;;;26.00;34.28;101510.91;5058747;28;1890;-34
2022/10/16 02:40:49;;;;;;;;;;;;;;;25.98;34.30;101518.31;5052598;28;1265;-34
2022/10/16 02:43:15;;;;;;;;;;;;;;;25.99;34.36;101515.44;5062668;28;2342;-36
2022/10/16 02:45:40;;;;;;;;;;;;;;;25.97;34.61;101511.22;5040970;28;1113;-35
2022/10/16 02:48:05;;;;;;;;;;;;;;;25.96;33.85;101523.03;5056267;28;1143;-35
2022/10/16 02:50:31;;;;;;;;;;;;;;;25.92;33.61;101520.63;5070748;28;1134;-34
2022/10/16 02:52:56;;;;;;;;;;;;;;;25.97;33.61;101520.16;5065411;28;1143;-34
2022/10/16 02:55:21;;;;;;;;;;;;;;;25.96;33.40;101534.63;5072997;28;1120;-35
2022/10/16 02:57:46;;;;;;;;;;;;;;;25.96;33.85;101540.03;5058680;28;1116;-35
2022/10/16 03:00:13;;;;;;;;;;;;;;;26.00;34.37;101527.09;5061604;28;1972;-36
2022/10/16 03:02:38;;;;;;;;;;;;;;;26.00;34.31;101535.19;5068635;28;1171;-35
2022/10/16 03:05:03;;;;;;;;;;;;;;;25.94;34.62;101533.97;5065195;28;1096;-34
2022/10/16 03:07:29;;;;;;;;;;;;;;;25.96;34.92;101533.81;5070947;28;1214;-35
2022/10/16 03:09:55;;;;;;;;;;;;;;;25.93;34.83;101524.16;5057374;28;1179;-35
2022/10/16 03:12:20;;;;;;;;;;;;;;;25.94;35.07;101531.28;5068827;28;2320;-35
2022/10/16 03:14:46;;;;;;;;;;;;;;;25.89;34.65;101537.09;5058164;28;1123;-35
2022/10/16 03:17:12;;;;;;;;;;;;;;;25.91;34.33;101547.72;5065424;28;1144;-34
2022/10/16 03:19:38;;;;;;;;;;;;;;;25.86;34.88;101540.13;5071798;28;1961;-35
2022/10/16 03:22:03;;;;;;;;;;;;;;;25.97;34.67;101530.09;5081568;28;1119;-35
2022/10/16 03:24:28;;;;;;;;;;;;;;;25.94;34.46;101539.38;5058045;28;1108;-35
2022/10/16 03:26:53;;;;;;;;;;;;;;;25.97;34.49;101535.50;5058083;28;1100;-35
2022/10/16 03:29:19;;;;;;;;;;;;;;;25.94;32.98;101533.97;5065420;28;1171;-34
2022/10/16 03:31:44;;;;;;;;;;;;;;;25.71;32.25;101533.59;5066455;28;1146;-34
2022/10/16 03:34:09;;;;;;;;;;;;;;;25.71;32.08;101536.28;5058025;28;1172;-36
2022/10/16 03:36:35;;;;;;;;;;;;;;;25.66;32.01;101531.34;5057753;28;1120;-34
2022/10/16 03:39:00;;;;;;;;;;;;;;;25.70;31.58;101538.13;5058234;28;1902;-34
2022/10/16 03:41:25;;;;;;;;;;;;;;;25.78;31.67;101540.91;5074375;28;1786;-35
2022/10/16 03:43:51;;;;;;;;;;;;;;;25.66;31.55;101547.50;5057919;28;1180;-36
2022/10/16 03:46:16;;;;;;;;;;;;;;;25.76;31.70;101539.34;5071570;28;1190;-35
2022/10/16 03:48:41;;;;;;;;;;;;;;;25.72;31.77;101540.66;5057093;28;1151;-36
2022/10/16 03:51:06;;;;;;;;;;;;;;;25.49;30.56;101555.41;5057583;28;1152;-35
2022/10/16 03:53:32;;;;;;;;;;;;;;;25.53;28.33;101554.09;5065506;28;1188;-36
2022/10/16 03:55:58;;;;;;;;;;;;;;;25.54;28.13;101550.41;5077107;28;1124;-36
2022/10/16 03:58:23;;;;;;;;;;;;;;;25.47;28.38;101557.41;5075243;28;1890;-35
2022/10/16 04:00:48;;;;;;;;;;;;;;;25.22;28.26;101553.59;5056978;28;1100;-35
2022/10/16 04:03:14;;;;;;;;;;;;;;;25.36;28.93;101560.31;5070363;28;1116;-35
2022/10/16 04:05:39;;;;;;;;;;;;;;;25.46;27.98;101561.09;5056924;28;852;-35
2022/10/16 04:08:04;;;;;;;;;;;;;;;25.45;27.87;101559.41;5056876;28;1136;-33
2022/10/16 04:10:30;;;;;;;;;;;;;;;25.51;28.53;101558.78;5056781;28;1168;-35
2022/10/16 04:12:55;;;;;;;;;;;;;;;25.40;28.41;101570.63;5066515;28;2469;-34
2022/10/16 04:15:21;;;;;;;;;;;;;;;25.49;28.26;101571.56;5062888;28;1186;-34
2022/10/16 04:17:46;;;;;;;;;;;;;;;25.41;28.08;101566.94;5067839;28;884;-34
2022/10/16 04:20:12;;;;;;;;;;;;;;;25.52;27.69;101562.34;5056834;28;1979;-34
2022/10/16 04:22:37;;;;;;;;;;;;;;;25.57;27.99;101573.50;5056687;28;1215;-35
2022/10/16 04:25:02;;;;;;;;;;;;;;;25.54;27.54;101571.94;5056829;28;1093;-35
2022/10/16 04:27:28;;;;;;;;;;;;;;;25.58;27.47;101558.16;5056703;28;1127;-35
2022/10/16 04:29:53;;;;;;;;;;;;;;;25.50;28.11;101562.50;5065096;28;1434;-36
2022/10/16 04:32:19;;;;;;;;;;;;;;;25.44;27.92;101565.81;5074891;28;1087;-36
2022/10/16 04:34:44;;;;;;;;;;;;;;;25.37;28.24;101567.41;5038772;28;1129;-35
2022/10/16 04:37:09;;;;;;;;;;;;;;;25.42;28.47;101570.50;5056542;28;1140;-34
2022/10/16 04:39:35;;;;;;;;;;;;;;;25.38;28.14;101566.38;5071917;28;1974;-35
2022/10/16 04:42:00;;;;;;;;;;;;;;;25.39;28.01;101573.50;5070393;28;2366;-35
2022/10/16 04:44:25;;;;;;;;;;;;;;;25.39;27.82;101578.88;5070200;28;1112;-34
2022/10/16 04:46:51;;;;;;;;;;;;;;;25.30;27.56;101578.78;5056573;28;1116;-34
2022/10/16 04:49:16;;;;;;;;;;;;;;;25.27;27.31;101576.38;5056395;28;1195;-34
2022/10/16 04:51:41;;;;;;;;;;;;;;;25.23;27.22;101577.66;5055965;28;1211;-36
2022/10/16 04:54:06;;;;;;;;;;;;;;;25.22;27.56;101583.22;5065018;28;1199;-34
2022/10/16 04:56:32;;;;;;;;;;;;;;;25.25;28.06;101580.22;5075274;28;1131;-34
2022/10/16 04:58:57;;;;;;;;;;;;;;;25.27;28.72;101584.47;5063340;28;1977;-34
2022/10/16 05:01:22;;;;;;;;;;;;;;;25.36;28.96;101585.41;5076375;28;1144;-34
2022/10/16 05:03:48;;;;;;;;;;;;;;;25.45;29.11;101586.34;5057407;28;1186;-34
2022/10/16 05:06:13;;;;;;;;;;;;;;;25.56;28.98;101590.66;5066430;28;1195;-34
2022/10/16 05:08:38;;;;;;;;;;;;;;;25.47;29.35;101600.50;5075954;28;1194;-35
2022/10/16 05:11:04;;;;;;;;;;;;;;;25.56;29.47;101594.22;5067427;28;1182;-34
2022/10/16 05:13:29;;;;;;;;;;;;;;;25.60;29.50;101596.59;5072672;28;2521;-35
2022/10/16 05:15:54;;;;;;;;;;;;;;;25.54;29.52;101598.88;5055608;28;1179;-35
2022/10/16 05:18:19;;;;;;;;;;;;;;;25.59;29.56;101603.00;5065104;28;1971;-35
2022/10/16 05:20:45;;;;;;;;;;;;;;;25.54;30.15;101606.97;5071304;28;1036;-34
2022/10/16 05:23:11;;;;;;;;;;;;;;;25.53;30.12;101609.81;5065795;28;1128;-35
2022/10/16 05:25:37;;;;;;;;;;;;;;;25.61;30.00;101619.88;5075552;28;1104;-35
2022/10/16 05:28:02;;;;;;;;;;;;;;;25.56;30.41;101614.91;5076219;28;1194;-36
2022/10/16 05:30:27;;;;;;;;;;;;;;;25.73;29.89;101625.88;5061258;28;1155;-35
2022/10/16 05:32:52;;;;;;;;;;;;;;;25.69;30.46;101630.75;5069228;28;1207;-35
2022/10/16 05:35:18;;;;;;;;;;;;;;;25.70;30.21;101629.75;5068213;28;1205;-34
2022/10/16 05:37:43;;;;;;;;;;;;;;;25.61;30.55;101636.03;5057277;28;1174;-35
2022/10/16 05:40:09;;;;;;;;;;;;;;;25.64;30.62;101641.13;5059632;28;1964;-35
2022/10/16 05:42:34;;;;;;;;;;;;;;;25.56;30.68;101637.31;5055767;28;2247;-35
2022/10/16 05:45:00;;;;;;;;;;;;;;;25.63;30.64;101652.91;5073924;28;1108;-35
2022/10/16 05:47:25;;;;;;;;;;;;;;;25.74;30.71;101643.78;5065730;28;1229;-35
2022/10/16 05:49:51;;;;;;;;;;;;;;;25.65;30.68;101649.06;5055299;28;1107;-37
2022/10/16 05:52:16;;;;;;;;;;;;;;;25.66;30.97;101647.19;5063331;28;1104;-35
2022/10/16 05:54:41;;;;;;;;;;;;;;;25.70;31.00;101658.53;5071137;28;1135;-36
2022/10/16 05:57:07;;;;;;;;;;;;;;;25.65;31.17;101648.22;5069714;28;1198;-36
2022/10/16 05:59:32;;;;;;;;;;;;;;;25.51;31.63;101645.00;5055453;28;1890;-36
2022/10/16 06:01:57;;;;;;;;;;;;;;;25.52;31.72;101660.19;5056012;28;1115;-36
2022/10/16 06:04:23;;;;;;;;;;;;;;;25.70;31.82;101663.91;5065479;28;1211;-34
2022/10/16 06:06:48;;;;;;;;;;;;;;;25.91;31.86;101667.19;5070100;28;1195;-33
2022/10/16 06:09:13;;;;;;;;;;;;;;;26.02;31.66;101667.97;5067657;28;1214;-37
2022/10/16 06:11:38;;;;;;;;;;;;;;;26.04;31.27;101660.59;5057912;28;2686;-37
2022/10/16 06:14:06;;;;;;;;;;;;;;;26.00;31.21;101668.13;5069645;28;1171;-37
2022/10/16 06:16:32;;;;;;;;;;;;;;;25.99;31.58;101671.00;5055111;28;1120;-37
2022/10/16 06:18:59;;;;;;;;;;;;;;;25.95;31.58;101674.97;5065722;28;1902;-37
2022/10/16 06:21:24;;;;;;;;;;;;;;;26.04;31.63;101677.59;5065412;28;1147;-35
2022/10/16 06:23:50;;;;;;;;;;;;;;;26.03;31.88;101667.81;5055514;28;1190;-35
2022/10/16 06:26:16;;;;;;;;;;;;;;;26.06;31.91;101680.13;5055172;28;1179;-36
2022/10/16 06:28:41;;;;;;;;;;;;;;;26.06;31.88;101672.03;5068916;28;1116;-36
2022/10/16 06:31:07;;;;;;;;;;;;;;;26.21;31.60;101688.53;5055028;28;1131;-35
2022/10/16 06:33:33;;;;;;;;;;;;;;;26.23;31.97;101694.63;5055654;28;1250;-35
2022/10/16 06:36:04;;;;;;;;;;;;;;;26.26;32.03;101694.31;5055323;28;1104;-36
2022/10/16 06:38:30;;;;;;;;;;;;;;;26.35;31.69;101692.59;5055026;28;1894;-36
2022/10/16 06:40:55;;;;;;;;;;;;;;;26.41;31.65;101691.97;5067891;28;1194;-35
2022/10/16 06:43:20;;;;;;;;;;;;;;;26.43;31.69;101689.09;5070502;28;2373;-36
2022/10/16 06:45:55;;;;;;;;;;;;;;;26.43;31.93;101699.03;5066743;28;1091;-36
2022/10/16 06:48:20;;;;;;;;;;;;;;;26.49;31.67;101698.44;5072302;28;1215;-35
2022/10/16 06:51:02;;;;;;;;;;;;;;;26.45;31.96;101706.00;5058973;28;1179;-35
2022/10/16 06:53:28;;;;;;;;;;;;;;;26.47;31.84;101704.00;5058514;28;1156;-35
2022/10/16 06:55:53;;;;;;;;;;;;;;;26.50;31.91;101717.19;5074218;28;925;-36
2022/10/16 06:58:19;;;;;;;;;;;;;;;26.49;32.14;101709.25;5062594;28;1124;-35
2022/10/16 07:00:44;;;;;;;;;;;;;;;26.55;32.00;101697.81;5058853;28;1974;-36
2022/10/16 07:03:09;;;;;;;;;;;;;;;26.52;32.07;101704.38;5057980;28;1182;-35
2022/10/16 07:05:41;;;;;;;;;;;;;;;26.55;31.94;101702.34;5072492;28;1207;-35
2022/10/16 07:08:06;;;;;;;;;;;;;;;26.51;32.08;101710.75;5057692;28;1700;-35
2022/10/16 07:10:32;;;;;;;;;;;;;;;26.60;32.14;101709.00;5061971;28;1359;-35
2022/10/16 07:12:57;;;;;;;;;;;;;;;26.52;32.36;101707.09;5064557;28;2485;-35
2022/10/16 07:15:22;;;;;;;;;;;;;;;26.74;31.98;101704.03;5060396;28;1183;-33
2022/10/16 07:17:48;;;;;;;;;;;;;;;26.56;31.39;101704.91;5078161;28;1135;-36
2022/10/16 07:20:13;;;;;;;;;;;;;;;26.61;31.30;101712.53;5074530;28;1914;-32
2022/10/16 07:22:38;;;;;;;;;;;;;;;26.53;31.84;101713.31;5057987;28;1143;-35
2022/10/16 07:25:04;;;;;;;;;;;;;;;26.40;32.41;101713.69;5058208;28;1171;-36
2022/10/16 07:27:29;;;;;;;;;;;;;;;26.50;32.56;101714.47;5059500;28;2289;-34
2022/10/16 07:29:55;;;;;;;;;;;;;;;26.53;32.35;101713.31;5057977;28;1223;-34
2022/10/16 07:32:20;;;;;;;;;;;;;;;26.49;32.52;101709.25;5071649;28;1023;-36
2022/10/16 07:34:45;;;;;;;;;;;;;;;26.73;32.85;101705.03;5058198;28;1156;-35
2022/10/16 07:37:11;;;;;;;;;;;;;;;26.69;32.91;101701.81;5057908;28;1195;-35
2022/10/16 07:39:36;;;;;;;;;;;;;;;26.51;33.28;101708.06;5071468;28;1957;-34
2022/10/16 07:42:01;;;;;;;;;;;;;;;26.57;33.31;101714.69;5057994;28;1234;-34
2022/10/16 07:44:26;;;;;;;;;;;;;;;26.63;33.58;101719.47;5057772;28;958;-34
2022/10/16 07:46:52;;;;;;;;;;;;;;;26.82;33.32;101725.69;5072205;28;1132;-35
2022/10/16 07:49:17;;;;;;;;;;;;;;;26.71;32.25;101728.66;5058312;28;1212;-35
2022/10/16 07:51:42;;;;;;;;;;;;;;;26.70;30.97;101719.69;5057179;28;1076;-32
2022/10/16 07:54:08;;;;;;;;;;;;;;;26.44;29.91;101706.16;5057870;28;1112;-34
2022/10/16 07:56:34;;;;;;;;;;;;;;;26.38;31.05;101724.66;5073846;28;921;-33
2022/10/16 07:58:59;;;;;;;;;;;;;;;26.33;31.04;101718.00;5057240;28;1898;-33
2022/10/16 08:01:24;;;;;;;;;;;;;;;26.31;31.78;101722.69;5057591;28;1206;-32
2022/10/16 08:03:50;;;;;;;;;;;;;;;26.35;32.23;101722.25;5070927;28;1104;-34
2022/10/16 08:06:15;;;;;;;;;;;;;;;26.37;31.89;101727.50;5057464;28;1127;-36
2022/10/16 08:08:41;;;;;;;;;;;;;;;26.34;31.19;101712.47;5074825;28;889;-36
2022/10/16 08:11:06;;;;;;;;;;;;;;;25.95;27.84;101712.72;5059375;28;1155;-35
2022/10/16 08:13:31;;;;;;;;;;;;;;;25.86;28.16;101723.41;5058290;28;2472;-35
2022/10/16 08:15:57;;;;;;;;;;;;;;;26.03;29.25;101724.44;5069098;28;2083;-35
2022/10/16 08:18:22;;;;;;;;;;;;;;;26.38;30.52;101715.69;5057079;28;2238;-39
2022/10/16 08:20:47;;;;;;;;;;;;;;;26.40;30.67;101716.41;5065068;28;1995;-38
2022/10/16 08:23:13;;;;;;;;;;;;;;;26.42;30.53;101717.09;5070386;28;1817;-37
2022/10/16 08:25:38;;;;;;;;;;;;;;;26.47;30.72;101724.72;5068848;28;2212;-38
2022/10/16 08:28:05;;;;;;;;;;;;;;;26.44;30.79;101711.56;5060005;28;1809;-38
2022/10/16 08:30:30;;;;;;;;;;;;;;;26.41;30.96;101713.53;5066982;28;1226;-38
2022/10/16 08:32:56;;;;;;;;;;;;;;;26.47;31.06;101711.25;5073406;28;893;-38
2022/10/16 08:35:21;;;;;;;;;;;;;;;26.48;30.88;101721.88;5057016;28;1159;-39
2022/10/16 08:37:46;;;;;;;;;;;;;;;26.47;30.78;101716.63;5056796;28;1144;-36
2022/10/16 08:40:27;;;;;;;;;;;;;;;26.32;31.40;101700.97;5063047;28;1917;-35
2022/10/16 08:43:13;;;;;;;;;;;;;;;26.46;31.15;101731.97;5075214;28;1182;-39
2022/10/16 08:45:57;;;;;;;;;;;;;;;26.44;31.22;101734.00;5055906;28;1174;-38
2022/10/16 08:48:23;;;;;;;;;;;;;;;26.43;31.15;101726.88;5060324;28;1152;-39
2022/10/16 08:50:49;;;;;;;;;;;;;;;26.52;31.38;101733.22;5076324;28;1163;-39
2022/10/16 08:53:15;;;;;;;;;;;;;;;26.51;31.13;101734.19;5060438;28;1139;-39
2022/10/16 08:55:50;;;;;;;;;;;;;;;26.52;31.06;101741.31;5038029;28;1132;-40
2022/10/16 08:58:16;;;;;;;;;;;;;;;26.53;31.27;101743.84;5047559;28;2382;-39
2022/10/16 09:00:42;;;;;;;;;;;;;;;26.51;31.34;101740.44;5068448;28;1901;-39
2022/10/16 09:03:12;;;;;;;;;;;;;;;26.56;31.11;101739.16;5055918;28;1200;-38
2022/10/16 09:05:38;;;;;;;;;;;;;;;26.55;31.22;101740.13;5058398;28;1116;-37
2022/10/16 09:08:21;;;;;;;;;;;;;;;26.52;31.12;101742.16;5072377;28;1091;-39
2022/10/16 09:10:47;;;;;;;;;;;;;;;26.57;31.13;101746.22;5055813;28;1183;-39
2022/10/16 09:13:23;;;;;;;;;;;;;;;26.60;31.24;101746.78;5055631;28;1155;-40
2022/10/16 09:16:07;;;;;;;;;;;;;;;26.63;31.21;101737.50;5043666;28;1168;-38
2022/10/16 09:18:35;;;;;;;;;;;;;;;26.60;31.29;101735.97;5061784;28;1905;-40
2022/10/16 09:21:06;;;;;;;;;;;;;;;26.57;31.33;101730.91;5071719;28;1059;-38
2022/10/16 09:23:34;;;;;;;;;;;;;;;26.59;31.19;101733.44;5062411;28;1190;-39
2022/10/16 09:25:59;;;;;;;;;;;;;;;26.65;31.67;101738.19;5055999;28;1192;-39
2022/10/16 09:28:24;;;;;;;;;;;;;;;26.72;31.09;101730.34;5066410;28;1802;-40
2022/10/16 09:30:50;;;;;;;;;;;;;;;26.71;30.88;101736.75;5072270;28;1127;-39
2022/10/16 09:33:15;;;;;;;;;;;;;;;26.75;30.98;101728.16;5073206;28;922;-36
2022/10/16 09:35:45;;;;;;;;;;;;;;;26.74;30.92;101733.72;5042153;28;1226;-37
2022/10/16 09:38:30;;;;;;;;;;;;;;;26.78;30.80;101735.94;5055412;28;1101;-38
2022/10/16 09:40:56;;;;;;;;;;;;;;;26.77;31.10;101749.59;5067936;28;1616;-37
2022/10/16 09:43:29;;;;;;;;;;;;;;;26.78;30.75;101743.19;5057792;28;1171;-39
2022/10/16 09:45:57;;;;;;;;;;;;;;;26.80;31.18;101735.78;5075521;28;1127;-38
2022/10/16 09:48:23;;;;;;;;;;;;;;;26.80;30.83;101734.94;5057444;28;1211;-39
2022/10/16 09:50:55;;;;;;;;;;;;;;;26.80;31.24;101733.09;5037741;28;1167;-38
2022/10/16 09:53:22;;;;;;;;;;;;;;;26.74;31.25;101729.16;5055698;28;1250;-36
2022/10/16 09:55:50;;;;;;;;;;;;;;;26.85;30.96;101725.38;5055356;28;1124;-38
2022/10/16 09:58:16;;;;;;;;;;;;;;;26.89;30.63;101732.13;5064441;28;2225;-37
2022/10/16 10:00:41;;;;;;;;;;;;;;;26.89;31.17;101726.75;5067916;28;1910;-38
2022/10/16 10:03:10;;;;;;;;;;;;;;;26.91;30.98;101731.97;5055437;28;1128;-38
2022/10/16 10:05:35;;;;;;;;;;;;;;;26.86;31.06;101740.56;5055199;28;1243;-37
2022/10/16 10:08:02;;;;;;;;;;;;;;;27.02;30.65;101737.19;5060073;28;1247;-38
2022/10/16 10:10:28;;;;;;;;;;;;;;;27.03;31.00;101740.72;5053838;28;1207;-38
2022/10/16 10:12:54;;;;;;;;;;;;;;;27.03;30.96;101738.00;5055155;28;1143;-38
2022/10/16 10:15:21;;;;;;;;;;;;;;;27.01;30.52;101743.56;5055373;28;1113;-39
2022/10/16 10:17:48;;;;;;;;;;;;;;;27.00;30.73;101731.06;5055410;28;1108;-36
2022/10/16 10:20:30;;;;;;;;;;;;;;;27.05;30.81;101736.00;5058321;28;1914;-39
2022/10/16 10:22:55;;;;;;;;;;;;;;;27.02;30.92;101726.38;5070656;28;1179;-39
2022/10/16 10:25:30;;;;;;;;;;;;;;;27.08;30.62;101735.69;5058812;28;1120;-39
2022/10/16 10:28:00;;;;;;;;;;;;;;;27.10;30.71;101728.28;5059940;28;1807;-38
2022/10/16 10:30:34;;;;;;;;;;;;;;;27.06;30.46;101721.47;5041793;28;1116;-38
2022/10/16 10:33:06;;;;;;;;;;;;;;;26.98;30.84;101716.84;5070284;28;941;-39
2022/10/16 10:35:50;;;;;;;;;;;;;;;27.02;30.93;101723.69;5065013;28;1214;-39
2022/10/16 10:38:15;;;;;;;;;;;;;;;26.99;30.60;101728.50;5067485;28;1140;-36
2022/10/16 10:40:40;;;;;;;;;;;;;;;27.03;30.94;101727.19;5064100;28;1902;-37
2022/10/16 10:43:38;;;;;;;;;;;;;;;27.05;30.71;101732.44;5058648;28;1183;-37
2022/10/16 10:46:04;;;;;;;;;;;;;;;27.04;30.59;101726.22;5044000;28;1453;-39
2022/10/16 10:48:41;;;;;;;;;;;;;;;27.08;30.53;101732.13;5064659;28;1198;-40
2022/10/16 10:51:10;;;;;;;;;;;;;;;27.10;30.79;101720.16;5060777;28;1131;-38
2022/10/16 10:53:54;;;;;;;;;;;;;;;27.16;30.34;101721.38;5042083;28;1439;-37
2022/10/16 10:56:19;;;;;;;;;;;;;;;27.06;30.33;101721.47;5062655;28;1116;-39
2022/10/16 10:59:17;;;;;;;;;;;;;;;27.11;30.72;101712.94;5065038;28;2436;-37
2022/10/16 11:01:42;;;;;;;;;;;;;;;27.09;30.80;101702.25;5042034;28;1219;-38
2022/10/16 11:04:12;;;;;;;;;;;;;;;27.14;30.47;101709.91;5058395;28;1214;-39
2022/10/16 11:06:48;;;;;;;;;;;;;;;27.18;30.40;101713.97;5039927;28;1026;-38
2022/10/16 11:09:26;;;;;;;;;;;;;;;27.16;30.31;101705.16;5051077;28;896;-39
2022/10/16 11:12:03;;;;;;;;;;;;;;;27.09;30.73;101710.34;5062956;28;1251;-37
2022/10/16 11:14:31;;;;;;;;;;;;;;;27.12;30.57;101703.81;5058607;28;1107;-34
2022/10/16 11:16:57;;;;;;;;;;;;;;;27.17;30.53;101703.31;5058233;28;1167;-39
2022/10/16 11:19:31;;;;;;;;;;;;;;;27.23;30.12;101710.78;5057949;28;1969;-39
2022/10/16 11:22:12;;;;;;;;;;;;;;;27.26;30.32;101710.44;5057763;28;957;-37
2022/10/16 11:24:41;;;;;;;;;;;;;;;27.24;30.40;101717.88;5058019;28;1097;-36
2022/10/16 11:27:07;;;;;;;;;;;;;;;27.24;30.62;101724.13;5039445;28;1124;-38
2022/10/16 11:29:33;;;;;;;;;;;;;;;27.22;30.29;101720.75;5058019;28;1144;-37
2022/10/16 11:32:00;;;;;;;;;;;;;;;27.29;30.14;101718.25;5039949;28;1152;-37
2022/10/16 11:34:25;;;;;;;;;;;;;;;27.32;30.11;101722.47;5072644;28;949;-38
2022/10/16 11:37:03;;;;;;;;;;;;;;;27.34;29.99;101726.69;5057600;28;1210;-39
2022/10/16 11:39:28;;;;;;;;;;;;;;;27.32;30.12;101719.78;5057845;28;1949;-39
2022/10/16 11:42:12;;;;;;;;;;;;;;;27.35;30.47;101706.81;5058270;28;1211;-37
2022/10/16 11:44:44;;;;;;;;;;;;;;;27.43;30.22;101705.97;5061479;28;1226;-38
2022/10/16 11:47:24;;;;;;;;;;;;;;;27.44;30.49;101709.53;5069680;28;1215;-39
2022/10/16 11:49:50;;;;;;;;;;;;;;;27.39;30.76;101708.16;5057743;28;1159;-36
2022/10/16 11:52:44;;;;;;;;;;;;;;;27.47;30.33;101707.38;5040310;28;1217;-35
2022/10/16 11:55:30;;;;;;;;;;;;;;;27.43;30.65;101718.63;5048169;28;1288;-38
2022/10/16 11:58:03;;;;;;;;;;;;;;;27.43;30.57;101715.94;5052445;28;871;-36
2022/10/16 12:00:44;;;;;;;;;;;;;;;27.50;30.60;101709.75;5058045;28;1967;-38
2022/10/16 12:03:16;;;;;;;;;;;;;;;27.60;30.69;101717.72;5057045;28;1140;-41
2022/10/16 12:05:56;;;;;;;;;;;;;;;27.48;30.14;101716.31;5057233;28;1124;-38
2022/10/16 12:08:21;;;;;;;;;;;;;;;27.30;29.25;101716.38;5056952;28;1194;-40
2022/10/16 12:10:47;;;;;;;;;;;;;;;27.24;29.16;101713.31;5056931;28;1016;-39
2022/10/16 12:13:31;;;;;;;;;;;;;;;27.26;29.88;101705.91;5039577;28;1251;-39
2022/10/16 12:16:11;;;;;;;;;;;;;;;26.96;30.37;101712.63;5057320;28;1112;-40
2022/10/16 12:18:37;;;;;;;;;;;;;;;26.76;31.31;101713.66;5057887;28;1909;-41
2022/10/16 12:21:06;;;;;;;;;;;;;;;26.81;31.14;101720.44;5069988;28;1206;-40
2022/10/16 12:23:32;;;;;;;;;;;;;;;26.95;30.59;101711.78;5039964;28;1148;-36
2022/10/16 12:25:57;;;;;;;;;;;;;;;27.14;30.68;101716.13;5056698;28;1175;-37
2022/10/16 12:28:26;;;;;;;;;;;;;;;27.24;30.57;101707.91;5056856;28;1206;-40
2022/10/16 12:30:55;;;;;;;;;;;;;;;26.96;30.88;101724.25;5039062;28;1164;-34
2022/10/16 12:33:24;;;;;;;;;;;;;;;26.34;26.55;101727.81;5038944;28;1196;-42
2022/10/16 12:35:50;;;;;;;;;;;;;;;26.27;26.32;101727.53;5038890;28;1195;-39
2022/10/16 12:38:16;;;;;;;;;;;;;;;26.00;24.33;101734.69;5057087;28;1218;-40
2022/10/16 12:40:41;;;;;;;;;;;;;;;25.56;23.78;101737.00;5056067;28;1894;-40
2022/10/16 12:43:32;;;;;;;;;;;;;;;25.27;28.43;101747.88;5037897;28;1202;-38
2022/10/16 12:46:04;;;;;;;;;;;;;;;22.85;27.92;101748.50;5053091;28;1215;-38
2022/10/16 12:48:30;;;;;;;;;;;;;;;22.04;32.36;101749.72;5056729;28;1156;-39
2022/10/16 12:50:55;;;;;;;;;;;;;;;21.94;32.27;101745.06;5038406;28;1244;-39
2022/10/16 12:53:22;;;;;;;;;;;;;;;21.98;31.06;101753.72;5056842;28;1235;-38